Online since October of 2007


Active alerts

Marquette
  Details for Marquette Special Weather Statement

Bigbaywx more information Bigbaywx


mount mesnard more information Mount Mesnard


visit our other weather sites:

Template documentation
and downloads

And another site


CBI


nearby metar reports

   
KSAW - Sawyer, Michigan
updated: Dec 14 2019 1:38 am
mist, overcast  
mist, overcast  
   wind: calm
wind: calm
temperature: 26.6°F
dew point: 24.8°F
humidity: 93%
barometer: 29.72 inHg
clouds: overcast
visibility: 5 mi
cloud details: overcast 274 m
KSAW 140638Z AUTO 00000KT 5SM BR OVC009 M03/M04 A2972 RMK AO2 T10351042
KESC - Escanaba, Michigan
updated: Dec 14 2019 12:56 am
overcast  
overcast  
   wind: wnw 3.5 mph
wind: wnw 3.5 mph
temperature: 24.8°F
wind chill: 19.4°F
dew point: 24.8°F
humidity: 100%
barometer: 29.78 inHg
clouds: overcast
visibility: 8 mi
cloud details: mostly cloudy 975 m,
overcast 1372 m
KESC 140556Z AUTO 29003KT 8SM BKN032 OVC045 M04/M04 A2978 RMK AO2 SNE45 SLP097 P0000 60000 T10391044 11022 21039 56012 FZRANO
KIMT - Iron Mountain, MI
updated: Dec 14 2019 12:54 am
mist, overcast  
mist, overcast  
   wind: calm
wind: calm
temperature: 24.8°F
dew point: 21.2°F
humidity: 86%
barometer: 29.73 inHg
clouds: overcast
visibility: 5 mi
cloud details: overcast 1280 m
KIMT 140554Z AUTO 00000KT 5SM BR OVC042 M04/M06 A2973 RMK AO2 SLP085 60000 T10441061 11033 21044 410281072 58014
KGRB - Green Bay, WI
updated: Dec 14 2019 12:53 am
mist, overcast  
mist, overcast  
   wind: calm
wind: calm
temperature: 26.6°F
dew point: 21.2°F
humidity: 80%
barometer: 29.79 inHg
clouds: overcast
visibility: 5 mi
cloud details: overcast 793 m
KGRB 140553Z 00000KT 5SM BR OVC026 M03/M06 A2979 RMK AO2 SLP098 60000 T10331056 11028 21050 410221056 58008
KDET - Detroit, MI
updated: Dec 14 2019 12:53 am
clear  
clear  
   wind: calm
wind: calm
temperature: 30.2°F
dew point: 28.4°F
humidity: 93%
barometer: 29.79 inHg
clouds: clear
visibility: 8 mi
cloud details: clear
KDET 140553Z 00000KT 8SM CLR M01/M02 A2979 RMK AO2 SLP093 T10111017 10017 21011 58021
 

script developed by  Saratoga-weather.org adapted for the template by  Weerstation Leuven

you find our weather info also at:

Weather Underground

midwestern weather network

WeatherlinkIP

Citizen Weather Observer Program (CWOP)

equipment we use:

weather-station
Davis VP2

weather-program
Davis Weatherlink.Com

Davis VP2

Davis Weatherlink.Com